Rhu, United Kingdom
Current Conditions -  °F | °C
As of 6:20 AM on Tuesday 21 Oct 2014 (Local Time) from EGPF Reporting Station
Light Rain Light Rain  
Wind Chill: 39°   Ceiling: 2100
Heat Index: 46°   Visibility: 6mi
Dew Point: 41°   Wind: 18mph
Humidity: 81%   Direction: 270°W
Pressure: 29.18"   Gusts: NA
Location:  56.02°N, 4.77°W
Report Text: EGPF 210520Z AUTO 27016KT 9999 -RA BKN021/// //////TCU 08/05 Q0988 RERA
Loading
Personal Weather Stations






























Interactive Weather Map
Tropical Storm Tracking
New forecast layout! Learn more

10-Day Weather Forecast

Advertisements
Track Severe Weather on mobile